Time;durP1;ratioP1;P1;durP2;ratioP2;P2;SDS_P1;SDS_P2;PMS_P1;PMS_P2;Temp;Humidity;BMP_temperature;BMP_pressure;BME280_temperature;BME280_humidity;BME280_pressure;Samples;Min_cycle;Max_cycle;Signal;HPM_P1;HPM_P2
2022/07/03 00:00:07;;;;;;;0.70;0.40;;;18.90;99.90;;;;;;4974940;28;20945;-78
2022/07/03 00:02:34;;;;;;;0.43;0.43;;;18.80;99.90;;;;;;4975256;28;20465;-78
2022/07/03 00:05:00;;;;;;;0.60;0.50;;;18.80;99.90;;;;;;4974879;28;20445;-78
2022/07/03 00:07:27;;;;;;;0.50;0.50;;;18.70;99.90;;;;;;4975111;28;20473;-78
2022/07/03 00:09:54;;;;;;;0.60;0.60;;;18.70;99.90;;;;;;4974819;28;20488;-78
2022/07/03 00:12:21;;;;;;;0.40;0.40;;;18.60;99.90;;;;;;4975092;28;20445;-78
2022/07/03 00:14:50;;;;;;;0.40;0.40;;;18.60;99.90;;;;;;4975073;28;20481;-78
2022/07/03 00:17:17;;;;;;;0.63;0.63;;;18.60;99.90;;;;;;4974974;28;20516;-78
2022/07/03 00:19:44;;;;;;;0.60;0.50;;;18.50;99.90;;;;;;4974625;28;20855;-78
2022/07/03 00:22:13;;;;;;;0.57;0.50;;;18.50;99.90;;;;;;4974600;28;21029;-78
2022/07/03 00:24:43;;;;;;;1.03;0.70;;;18.50;99.90;;;;;;4974929;28;20445;-78
2022/07/03 00:27:11;;;;;;;1.10;0.50;;;18.50;99.90;;;;;;4975181;28;20520;-78
2022/07/03 00:29:41;;;;;;;0.50;0.50;;;18.50;99.90;;;;;;4974836;28;20453;-78
2022/07/03 00:32:11;;;;;;;1.60;0.57;;;18.50;99.90;;;;;;4974527;28;20456;-78
2022/07/03 00:34:39;;;;;;;0.70;0.60;;;18.50;99.90;;;;;;4975069;28;20823;-78
2022/07/03 00:37:07;;;;;;;0.50;0.50;;;18.40;99.90;;;;;;4974678;28;20477;-78
2022/07/03 00:39:36;;;;;;;0.50;0.50;;;18.50;99.90;;;;;;4974212;28;20457;-78
2022/07/03 00:42:06;;;;;;;0.47;0.47;;;18.40;99.90;;;;;;4974615;28;20517;-78
2022/07/03 00:44:38;;;;;;;0.63;0.63;;;18.40;99.90;;;;;;4974702;28;20446;-78
2022/07/03 00:47:05;;;;;;;0.40;0.40;;;18.40;99.90;;;;;;4974552;28;20488;-78
2022/07/03 00:49:36;;;;;;;2.23;0.80;;;18.30;99.90;;;;;;4974626;28;20449;-78
2022/07/03 00:52:05;;;;;;;0.50;0.50;;;18.30;99.90;;;;;;4974644;28;20502;-78
2022/07/03 00:54:35;;;;;;;0.60;0.40;;;18.30;99.90;;;;;;4974619;28;20480;-78
2022/07/03 00:57:03;;;;;;;0.50;0.50;;;18.20;99.90;;;;;;4974483;28;20597;-78
2022/07/03 00:59:30;;;;;;;9.43;0.60;;;18.20;99.90;;;;;;4974544;28;20449;-78
2022/07/03 01:02:04;;;;;;;0.50;0.43;;;18.20;99.90;;;;;;4974445;28;20503;-78
2022/07/03 01:04:42;;;;;;;0.70;0.60;;;18.10;99.90;;;;;;4975338;28;20445;-78
2022/07/03 01:07:18;;;;;;;0.60;0.50;;;18.10;99.90;;;;;;4974449;28;20465;-78
2022/07/03 01:09:56;;;;;;;1.73;0.60;;;18.10;99.90;;;;;;4974127;28;20484;-78
2022/07/03 01:12:34;;;;;;;0.40;0.40;;;18.00;99.90;;;;;;4974129;28;20917;-78
2022/07/03 01:15:10;;;;;;;0.80;0.80;;;18.00;99.90;;;;;;4974449;28;20433;-78
2022/07/03 01:17:40;;;;;;;0.80;0.57;;;17.90;99.90;;;;;;4974051;28;20468;-78
2022/07/03 01:20:08;;;;;;;0.60;0.60;;;17.90;99.90;;;;;;4974005;28;20456;-78
2022/07/03 01:22:37;;;;;;;0.73;0.60;;;17.80;99.90;;;;;;4974226;28;20489;-78
2022/07/03 01:25:13;;;;;;;0.50;0.43;;;17.80;99.90;;;;;;4974271;28;20469;-78
2022/07/03 01:28:02;;;;;;;1.20;0.80;;;17.80;99.90;;;;;;4974242;28;20473;-78
2022/07/03 01:30:30;;;;;;;0.40;0.40;;;17.70;99.90;;;;;;4971789;28;20458;-78
2022/07/03 01:33:00;;;;;;;0.50;0.50;;;17.70;99.90;;;;;;4973904;28;20820;-78
2022/07/03 01:35:32;;;;;;;0.50;0.50;;;17.70;99.90;;;;;;4974331;28;20449;-78
2022/07/03 01:38:03;;;;;;;0.40;0.40;;;17.60;99.90;;;;;;4974314;28;20434;-78
2022/07/03 01:40:32;;;;;;;0.50;0.50;;;17.60;99.90;;;;;;4974157;28;20430;-78
2022/07/03 01:43:02;;;;;;;0.70;0.53;;;17.60;99.90;;;;;;4974163;28;20445;-78
2022/07/03 01:45:31;;;;;;;0.50;0.50;;;17.50;99.90;;;;;;4974120;28;20465;-78
2022/07/03 01:47:59;;;;;;;0.87;0.70;;;17.50;99.90;;;;;;4974089;28;20453;-78
2022/07/03 01:50:28;;;;;;;0.93;0.60;;;17.50;99.90;;;;;;4974991;28;20464;-78
2022/07/03 01:52:57;;;;;;;0.60;0.60;;;17.40;99.90;;;;;;4977332;28;20449;-78
2022/07/03 01:55:24;;;;;;;0.57;0.57;;;17.40;99.90;;;;;;4977183;28;20964;-78
2022/07/03 01:57:52;;;;;;;1.07;0.60;;;17.40;99.90;;;;;;4977568;28;20445;-78
2022/07/03 02:00:22;;;;;;;0.40;0.30;;;17.40;99.90;;;;;;4977215;28;20449;-78
2022/07/03 02:02:56;;;;;;;0.47;0.47;;;17.40;99.90;;;;;;4977447;28;20469;-78
2022/07/03 02:05:39;;;;;;;0.83;0.40;;;17.30;99.90;;;;;;4977054;28;20433;-78
2022/07/03 02:08:31;;;;;;;0.60;0.50;;;17.40;99.90;;;;;;4977338;28;20453;-78
2022/07/03 02:11:12;;;;;;;0.40;0.40;;;17.30;99.90;;;;;;4977335;28;20498;-78
2022/07/03 02:13:48;;;;;;;0.50;0.50;;;17.30;99.90;;;;;;4977350;28;20425;-78
2022/07/03 02:16:20;;;;;;;1.23;0.63;;;17.30;99.90;;;;;;4977217;28;20460;-78
2022/07/03 02:18:54;;;;;;;0.53;0.53;;;17.30;99.90;;;;;;4977223;28;20430;-78
2022/07/03 02:21:21;;;;;;;0.50;0.50;;;17.30;99.90;;;;;;4977106;28;20478;-78
2022/07/03 02:23:55;;;;;;;0.67;0.50;;;17.30;99.90;;;;;;4977062;28;20460;-78
2022/07/03 02:26:27;;;;;;;0.47;0.47;;;17.40;99.90;;;;;;4976975;28;20477;-78
2022/07/03 02:29:02;;;;;;;3.50;0.80;;;17.40;99.90;;;;;;4977040;28;20441;-78
2022/07/03 02:31:39;;;;;;;0.43;0.43;;;17.30;99.90;;;;;;4976996;28;20433;-78
2022/07/03 02:34:07;;;;;;;0.63;0.60;;;17.40;99.90;;;;;;4976952;28;20460;-78
2022/07/03 02:36:36;;;;;;;0.50;0.50;;;17.40;99.90;;;;;;4976812;28;20845;-78
2022/07/03 02:39:05;;;;;;;0.70;0.70;;;17.30;99.90;;;;;;4976834;28;20453;-78
2022/07/03 02:41:43;;;;;;;0.97;0.63;;;17.40;99.90;;;;;;4976715;28;20507;-78
2022/07/03 02:44:22;;;;;;;1.30;0.70;;;17.40;99.90;;;;;;4976573;28;20815;-78
2022/07/03 02:46:55;;;;;;;0.40;0.40;;;17.30;99.90;;;;;;4976654;28;20484;-78
2022/07/03 02:49:42;;;;;;;0.60;0.60;;;17.30;99.90;;;;;;4976716;28;20433;-78
2022/07/03 02:52:22;;;;;;;0.60;0.50;;;17.30;99.90;;;;;;4976613;28;20433;-79
2022/07/03 02:54:52;;;;;;;0.57;0.57;;;17.30;99.90;;;;;;4976559;28;20432;-78
2022/07/03 02:57:20;;;;;;;1.33;0.50;;;17.30;99.90;;;;;;4976426;28;20842;-78
2022/07/03 02:59:55;;;;;;;0.63;0.63;;;17.30;99.90;;;;;;4976479;28;20442;-79
2022/07/03 03:02:39;;;;;;;0.73;0.63;;;17.20;99.90;;;;;;4975974;28;20469;-78
2022/07/03 03:05:10;;;;;;;0.60;0.60;;;17.30;99.90;;;;;;4976390;28;20441;-78
2022/07/03 03:07:49;;;;;;;0.40;0.40;;;17.30;99.90;;;;;;4976270;28;20508;-78
2022/07/03 03:10:20;;;;;;;1.10;0.53;;;17.20;99.90;;;;;;4975865;28;20480;-78
2022/07/03 03:12:52;;;;;;;0.80;0.60;;;17.20;99.90;;;;;;4976776;28;20429;-78
2022/07/03 03:15:25;;;;;;;0.87;0.63;;;17.20;99.90;;;;;;4975910;28;20437;-78
2022/07/03 03:17:57;;;;;;;0.40;0.40;;;17.20;99.90;;;;;;4976132;28;20445;-78
2022/07/03 03:20:30;;;;;;;0.40;0.40;;;17.10;99.90;;;;;;4976099;28;20437;-79
2022/07/03 03:23:09;;;;;;;1.00;1.00;;;17.10;99.90;;;;;;4975988;28;20462;-79
2022/07/03 03:25:36;;;;;;;0.50;0.50;;;17.10;99.90;;;;;;4975913;28;20472;-79
2022/07/03 03:28:03;;;;;;;0.60;0.60;;;17.10;99.90;;;;;;4975920;28;20441;-78
2022/07/03 03:30:30;;;;;;;0.73;0.73;;;17.10;99.90;;;;;;4975882;28;20456;-78
2022/07/03 03:32:58;;;;;;;0.50;0.50;;;17.10;99.90;;;;;;4975798;28;20452;-78
2022/07/03 03:35:25;;;;;;;0.53;0.53;;;17.10;99.90;;;;;;4975379;28;20860;-78
2022/07/03 03:37:52;;;;;;;0.60;0.60;;;17.10;99.90;;;;;;4975427;28;20517;-78
2022/07/03 03:40:19;;;;;;;1.03;0.60;;;17.10;99.90;;;;;;4975671;28;20526;-78
2022/07/03 03:42:45;;;;;;;1.10;0.60;;;17.10;99.90;;;;;;4975573;28;20485;-78
2022/07/03 03:45:12;;;;;;;0.70;0.63;;;17.10;99.90;;;;;;4975587;28;20449;-78
2022/07/03 03:47:39;;;;;;;0.90;0.53;;;17.10;99.90;;;;;;4975485;28;20474;-79
2022/07/03 03:50:08;;;;;;;0.60;0.60;;;17.10;99.90;;;;;;4975479;28;20449;-79
2022/07/03 03:52:35;;;;;;;0.73;0.60;;;17.10;99.90;;;;;;4975455;28;20449;-79
2022/07/03 03:55:02;;;;;;;0.77;0.50;;;17.10;99.90;;;;;;4975183;28;20802;-79
2022/07/03 03:57:28;;;;;;;0.50;0.50;;;17.10;99.90;;;;;;4975282;28;20473;-79
2022/07/03 03:59:56;;;;;;;0.63;0.63;;;17.20;99.90;;;;;;4975002;28;20454;-78
2022/07/03 04:02:23;;;;;;;0.60;0.60;;;17.20;99.90;;;;;;4975212;28;20485;-79
2022/07/03 04:04:50;;;;;;;1.07;0.70;;;17.20;99.90;;;;;;4975262;28;20445;-79
2022/07/03 04:07:18;;;;;;;0.50;0.40;;;17.20;99.90;;;;;;4974812;28;20823;-79
2022/07/03 04:09:45;;;;;;;0.60;0.50;;;17.30;99.90;;;;;;4974923;28;20481;-79
2022/07/03 04:12:12;;;;;;;0.40;0.40;;;17.30;99.90;;;;;;4974939;28;20445;-79
2022/07/03 04:14:39;;;;;;;0.70;0.70;;;17.30;99.90;;;;;;4974270;28;20449;-79
2022/07/03 04:17:05;;;;;;;0.53;0.43;;;17.30;99.90;;;;;;4974968;28;20477;-79
2022/07/03 04:19:32;;;;;;;1.10;0.80;;;17.30;99.90;;;;;;4974999;28;20472;-79
2022/07/03 04:21:59;;;;;;;0.70;0.70;;;17.30;99.90;;;;;;4974881;28;20489;-79
2022/07/03 04:24:27;;;;;;;1.50;0.57;;;17.40;99.90;;;;;;4974939;28;20450;-79
2022/07/03 04:26:54;;;;;;;1.00;0.80;;;17.40;99.90;;;;;;4974544;28;20977;-78
2022/07/03 04:29:21;;;;;;;1.07;0.87;;;17.40;99.90;;;;;;4974654;28;20440;-78
2022/07/03 04:31:47;;;;;;;0.50;0.50;;;17.50;99.90;;;;;;4974850;28;20449;-78
2022/07/03 04:34:14;;;;;;;0.80;0.60;;;17.50;99.90;;;;;;4974824;28;20453;-78
2022/07/03 04:36:41;;;;;;;0.50;0.50;;;17.50;99.90;;;;;;4974735;28;20469;-78
2022/07/03 04:39:07;;;;;;;0.60;0.60;;;17.50;99.90;;;;;;4974488;28;20968;-78
2022/07/03 04:41:36;;;;;;;0.60;0.50;;;17.50;99.90;;;;;;4974338;28;20955;-78
2022/07/03 04:44:02;;;;;;;0.50;0.50;;;17.50;99.90;;;;;;4974693;28;20453;-78
2022/07/03 04:46:29;;;;;;;0.70;0.60;;;17.50;99.90;;;;;;4974284;28;20480;-78
2022/07/03 04:48:56;;;;;;;0.60;0.60;;;17.50;99.90;;;;;;4974632;28;20446;-78
2022/07/03 04:51:23;;;;;;;0.50;0.50;;;17.50;99.90;;;;;;4974416;28;20549;-78
2022/07/03 04:53:49;;;;;;;0.60;0.50;;;17.50;99.90;;;;;;4974576;28;20504;-78
2022/07/03 04:56:16;;;;;;;0.70;0.70;;;17.60;99.90;;;;;;4974150;28;20823;-78
2022/07/03 04:58:45;;;;;;;0.47;0.47;;;17.60;99.90;;;;;;4974226;28;20453;-78
2022/07/03 05:01:12;;;;;;;0.50;0.50;;;17.60;99.90;;;;;;4974505;28;20465;-79
2022/07/03 05:03:38;;;;;;;1.27;0.73;;;17.60;99.90;;;;;;4974092;28;20520;-79
2022/07/03 05:06:05;;;;;;;0.40;0.40;;;17.60;99.90;;;;;;4974408;28;20473;-79
2022/07/03 05:08:33;;;;;;;0.50;0.50;;;17.70;99.90;;;;;;4974233;28;20477;-79
2022/07/03 05:11:00;;;;;;;0.70;0.70;;;17.70;99.90;;;;;;4974414;28;20456;-79
2022/07/03 05:13:27;;;;;;;1.10;1.10;;;17.80;99.90;;;;;;4974442;28;20469;-79
2022/07/03 05:15:55;;;;;;;0.57;0.53;;;17.80;99.90;;;;;;4974297;28;20477;-78
2022/07/03 05:18:22;;;;;;;0.40;0.40;;;17.80;99.90;;;;;;4974373;28;20450;-78
2022/07/03 05:20:48;;;;;;;0.60;0.60;;;17.80;99.90;;;;;;4974348;28;20819;-78
2022/07/03 05:23:15;;;;;;;0.50;0.50;;;17.80;99.90;;;;;;4974269;28;20484;-78
2022/07/03 05:25:42;;;;;;;0.50;0.50;;;17.90;99.90;;;;;;4977266;28;20455;-78
2022/07/03 05:28:08;;;;;;;0.70;0.40;;;17.90;99.90;;;;;;4978141;28;20453;-78
2022/07/03 05:30:35;;;;;;;0.50;0.40;;;18.10;99.90;;;;;;4978120;28;20449;-79
2022/07/03 05:33:04;;;;;;;0.47;0.47;;;18.10;99.90;;;;;;4978016;28;20449;-79
2022/07/03 05:35:30;;;;;;;0.50;0.50;;;18.20;99.90;;;;;;4977903;28;20453;-79
2022/07/03 05:37:57;;;;;;;0.83;0.50;;;18.30;99.90;;;;;;4977920;28;20452;-79
2022/07/03 05:40:23;;;;;;;0.80;0.60;;;18.40;99.90;;;;;;4977878;28;20454;-79
2022/07/03 05:42:49;;;;;;;1.17;0.87;;;18.40;99.90;;;;;;4977470;28;20491;-79
2022/07/03 05:45:16;;;;;;;0.60;0.50;;;18.50;99.90;;;;;;4977490;28;20206;-79
2022/07/03 05:47:43;;;;;;;0.70;0.60;;;18.60;99.90;;;;;;4977695;28;20843;-79
2022/07/03 05:50:12;;;;;;;1.03;0.93;;;18.70;99.90;;;;;;4977571;28;20456;-79
2022/07/03 05:52:39;;;;;;;0.77;0.77;;;18.80;99.90;;;;;;4977359;28;20460;-79
2022/07/03 05:55:06;;;;;;;0.90;0.70;;;18.90;99.90;;;;;;4977317;28;20958;-78
2022/07/03 05:57:33;;;;;;;0.60;0.60;;;19.00;99.90;;;;;;4977521;28;20465;-79
2022/07/03 06:00:00;;;;;;;1.00;0.50;;;19.20;99.90;;;;;;4977281;28;20464;-79
2022/07/03 06:02:27;;;;;;;0.80;0.60;;;19.30;99.90;;;;;;4977413;28;20481;-79
2022/07/03 06:04:53;;;;;;;0.50;0.50;;;19.50;99.90;;;;;;4977445;28;20504;-78
2022/07/03 06:07:21;;;;;;;2.30;0.70;;;19.60;99.90;;;;;;4977075;28;20475;-78
2022/07/03 06:09:48;;;;;;;0.70;0.50;;;19.70;99.90;;;;;;4977003;28;20497;-79
2022/07/03 06:12:15;;;;;;;0.70;0.50;;;19.90;99.90;;;;;;4977318;28;20445;-79
2022/07/03 06:14:42;;;;;;;0.90;0.80;;;20.10;99.90;;;;;;4977584;28;20441;-79
2022/07/03 06:17:09;;;;;;;0.50;0.50;;;20.20;99.90;;;;;;4977234;28;20481;-79
2022/07/03 06:19:35;;;;;;;0.50;0.50;;;20.40;99.90;;;;;;4977228;28;20448;-79
2022/07/03 06:22:02;;;;;;;0.80;0.80;;;20.50;99.90;;;;;;4977152;28;20460;-79
2022/07/03 06:24:30;;;;;;;0.50;0.50;;;20.80;99.90;;;;;;4977803;28;20463;-79
2022/07/03 06:26:57;;;;;;;0.50;0.50;;;21.10;99.90;;;;;;4976881;28;20487;-79
2022/07/03 06:29:25;;;;;;;0.93;0.60;;;21.50;99.90;;;;;;4977053;28;20457;-79
2022/07/03 06:31:52;;;;;;;0.60;0.60;;;21.80;99.90;;;;;;4977026;28;20460;-79
2022/07/03 06:34:18;;;;;;;0.60;0.60;;;22.10;99.90;;;;;;4976633;28;20952;-79
2022/07/03 06:36:45;;;;;;;0.60;0.60;;;22.50;99.90;;;;;;4976031;28;20229;-79
2022/07/03 06:39:12;;;;;;;0.65;0.63;;;22.80;99.90;;;;;;4976575;28;20285;-79
2022/07/03 06:41:40;;;;;;;0.55;0.55;;;23.20;99.90;;;;;;4976801;28;20209;-79
2022/07/03 06:44:06;;;;;;;0.85;0.85;;;23.40;99.90;;;;;;4976383;28;20709;-79
2022/07/03 06:46:33;;;;;;;2.25;0.70;;;23.50;99.90;;;;;;4976673;28;20233;-79
2022/07/03 06:49:00;;;;;;;0.60;0.60;;;23.60;99.90;;;;;;4976867;28;20209;-79
2022/07/03 06:51:27;;;;;;;0.80;0.63;;;23.90;99.90;;;;;;4976321;28;20220;-79
2022/07/03 06:53:53;;;;;;;0.60;0.60;;;24.00;99.90;;;;;;4976615;28;20201;-79
2022/07/03 06:56:20;;;;;;;0.50;0.50;;;24.10;99.90;;;;;;4976465;28;20233;-79
2022/07/03 06:58:48;;;;;;;0.50;0.40;;;24.20;99.90;;;;;;4976515;28;20228;-79
2022/07/03 07:01:15;;;;;;;0.70;0.50;;;24.30;99.90;;;;;;4976161;28;20202;-79
2022/07/03 07:03:41;;;;;;;0.70;0.57;;;24.30;99.90;;;;;;4976045;28;20217;-79
2022/07/03 07:06:08;;;;;;;0.52;0.52;;;24.20;99.90;;;;;;4976285;28;20233;-79
2022/07/03 07:08:35;;;;;;;0.43;0.43;;;24.20;99.90;;;;;;4975818;28;20212;-79
2022/07/03 07:11:02;;;;;;;0.50;0.50;;;24.20;99.90;;;;;;4976303;28;20213;-79
2022/07/03 07:13:28;;;;;;;0.60;0.60;;;24.30;99.90;;;;;;4976201;28;20198;-79
2022/07/03 07:15:56;;;;;;;0.50;0.50;;;24.20;99.90;;;;;;4976090;28;20236;-79
2022/07/03 07:18:23;;;;;;;0.65;0.63;;;24.30;99.90;;;;;;4975837;28;20670;-79
2022/07/03 07:20:50;;;;;;;0.52;0.52;;;24.40;99.90;;;;;;4976107;28;20293;-79
2022/07/03 07:23:16;;;;;;;0.50;0.50;;;24.30;99.90;;;;;;4975620;28;20754;-79
2022/07/03 07:25:43;;;;;;;0.60;0.60;;;24.30;99.90;;;;;;4975937;28;20233;-79
2022/07/03 07:28:10;;;;;;;0.60;0.60;;;24.40;99.90;;;;;;4975728;28;20201;-79
2022/07/03 07:30:38;;;;;;;1.25;0.60;;;24.50;99.90;;;;;;4975954;28;20201;-79
2022/07/03 07:33:06;;;;;;;0.52;0.50;;;24.60;99.90;;;;;;4975869;28;20212;-79
2022/07/03 07:35:33;;;;;;;0.77;0.68;;;24.70;99.90;;;;;;4975749;28;20210;-79
2022/07/03 07:38:00;;;;;;;0.60;0.60;;;24.70;99.90;;;;;;4975776;28;20213;-80
2022/07/03 07:40:27;;;;;;;0.40;0.40;;;24.80;99.90;;;;;;4975717;28;20210;-80
2022/07/03 07:42:53;;;;;;;1.55;0.50;;;24.90;99.90;;;;;;4975600;28;20229;-80
2022/07/03 07:45:21;;;;;;;0.50;0.50;;;25.10;99.90;;;;;;4975610;28;20581;-80
2022/07/03 07:47:48;;;;;;;0.50;0.45;;;25.30;99.90;;;;;;4975443;28;20633;-80
2022/07/03 07:50:16;;;;;;;0.40;0.40;;;25.60;99.90;;;;;;4975518;28;20209;-79
2022/07/03 07:52:43;;;;;;;0.50;0.50;;;26.00;99.90;;;;;;4975210;28;20692;-79
2022/07/03 07:55:10;;;;;;;0.57;0.57;;;26.50;99.90;;;;;;4975451;28;20216;-80
2022/07/03 07:57:37;;;;;;;0.50;0.50;;;26.80;99.90;;;;;;4975117;28;20240;-80
2022/07/03 08:00:09;;;;;;;0.52;0.52;;;27.00;99.90;;;;;;4975956;28;20527;-80
2022/07/03 08:08:09;;;;;;;1.05;0.50;;;27.40;99.90;;;;;;4974935;28;20224;-80
2022/07/03 08:10:38;;;;;;;0.50;0.50;;;27.60;99.90;;;;;;4974969;28;20244;-80
2022/07/03 08:13:05;;;;;;;0.60;0.60;;;27.70;99.90;;;;;;4975187;28;20212;-80
2022/07/03 08:15:32;;;;;;;0.60;0.60;;;27.60;99.90;;;;;;4974805;28;20209;-80
2022/07/03 08:17:59;;;;;;;0.70;0.60;;;27.60;99.90;;;;;;4975052;28;20212;-80
2022/07/03 08:20:27;;;;;;;0.68;0.63;;;27.50;99.90;;;;;;4974747;28;20722;-80
2022/07/03 08:22:54;;;;;;;0.50;0.50;;;27.50;99.90;;;;;;4974948;28;20206;-80
2022/07/03 08:25:21;;;;;;;0.85;0.60;;;27.60;99.90;;;;;;4974957;28;20209;-80
2022/07/03 08:27:48;;;;;;;0.60;0.60;;;27.50;99.90;;;;;;4974845;28;20232;-80
2022/07/03 08:30:17;;;;;;;0.50;0.50;;;27.50;99.90;;;;;;4974910;28;20205;-80
2022/07/03 08:32:44;;;;;;;0.70;0.70;;;27.40;99.90;;;;;;4974852;28;20206;-80
2022/07/03 08:35:11;;;;;;;0.80;0.52;;;27.50;99.90;;;;;;4974822;28;20203;-80
2022/07/03 08:37:42;;;;;;;0.50;0.50;;;27.60;99.90;;;;;;4974416;28;20233;-80
2022/07/03 08:40:10;;;;;;;0.60;0.60;;;27.80;99.90;;;;;;4974817;28;20255;-80
2022/07/03 08:42:38;;;;;;;0.50;0.50;;;27.90;99.90;;;;;;4974421;28;20212;-80
2022/07/03 08:45:07;;;;;;;0.70;0.50;;;28.00;99.90;;;;;;4974355;28;20271;-80
2022/07/03 08:47:37;;;;;;;0.50;0.50;;;28.00;99.90;;;;;;4974624;28;20235;-80
2022/07/03 08:50:04;;;;;;;0.60;0.60;;;28.00;98.60;;;;;;4974616;28;20213;-80
2022/07/03 08:52:32;;;;;;;0.50;0.40;;;28.00;98.80;;;;;;4974619;28;20206;-80
2022/07/03 08:55:00;;;;;;;0.40;0.40;;;28.00;98.20;;;;;;4974623;28;20205;-80
2022/07/03 08:57:28;;;;;;;0.40;0.40;;;28.10;97.40;;;;;;4974215;28;20740;-80
2022/07/03 08:59:56;;;;;;;0.40;0.40;;;28.20;96.70;;;;;;4978318;28;20215;-80
2022/07/03 09:02:24;;;;;;;0.50;0.40;;;28.50;93.30;;;;;;4981008;28;20205;-80
2022/07/03 09:04:51;;;;;;;0.52;0.50;;;28.70;93.60;;;;;;4980908;28;20248;-80
2022/07/03 09:07:20;;;;;;;0.40;0.40;;;28.80;91.80;;;;;;4980885;28;20233;-80
2022/07/03 09:09:47;;;;;;;0.45;0.45;;;28.90;92.20;;;;;;4980455;28;20286;-80
2022/07/03 09:12:15;;;;;;;0.70;0.50;;;28.80;92.40;;;;;;4980906;28;20205;-80
2022/07/03 09:14:42;;;;;;;0.65;0.50;;;28.70;92.40;;;;;;4980582;28;20205;-80
2022/07/03 09:17:10;;;;;;;0.60;0.60;;;28.70;92.60;;;;;;4980792;28;20236;-80
2022/07/03 09:19:45;;;;;;;0.50;0.50;;;28.80;92.20;;;;;;4980753;28;20216;-80
2022/07/03 09:22:21;;;;;;;0.50;0.50;;;28.80;90.60;;;;;;4980517;28;20205;-80
2022/07/03 09:24:48;;;;;;;0.43;0.43;;;28.70;90.70;;;;;;4980762;28;20213;-80
2022/07/03 09:27:20;;;;;;;0.50;0.50;;;28.60;90.30;;;;;;4980539;28;20223;-80
2022/07/03 09:29:52;;;;;;;0.50;0.50;;;28.50;90.00;;;;;;4980767;28;20189;-80
2022/07/03 09:32:23;;;;;;;0.60;0.60;;;28.60;91.20;;;;;;4981217;28;20211;-80
2022/07/03 09:34:50;;;;;;;0.70;0.70;;;28.50;89.70;;;;;;4980698;28;20186;-80
2022/07/03 09:37:25;;;;;;;0.50;0.50;;;28.40;89.60;;;;;;4980630;28;20248;-80
2022/07/03 09:39:58;;;;;;;0.60;0.60;;;28.30;90.00;;;;;;4980731;28;20183;-80
2022/07/03 09:42:26;;;;;;;0.50;0.50;;;28.30;90.20;;;;;;4980648;28;20240;-80
2022/07/03 09:44:55;;;;;;;0.50;0.50;;;28.40;90.20;;;;;;4980242;28;20701;-80
2022/07/03 09:47:23;;;;;;;0.40;0.40;;;28.40;90.70;;;;;;4980496;28;20226;-80
2022/07/03 09:49:54;;;;;;;0.65;0.50;;;28.50;91.20;;;;;;4980531;28;20230;-80
2022/07/03 09:52:32;;;;;;;0.50;0.50;;;28.40;88.60;;;;;;4981313;28;20210;-80
2022/07/03 09:55:01;;;;;;;0.60;0.60;;;28.40;87.80;;;;;;4980498;28;20274;-80
2022/07/03 09:57:30;;;;;;;0.50;0.50;;;28.20;85.60;;;;;;4980144;28;20225;-80
2022/07/03 10:00:17;;;;;;;0.50;0.50;;;28.30;88.00;;;;;;4980183;28;20206;-79
2022/07/03 10:03:01;;;;;;;0.50;0.50;;;28.20;86.70;;;;;;4980467;28;20252;-79
2022/07/03 10:05:30;;;;;;;0.40;0.40;;;28.20;87.00;;;;;;4980329;28;20221;-80
2022/07/03 10:07:59;;;;;;;0.60;0.60;;;28.10;85.00;;;;;;4980184;28;20189;-80
2022/07/03 10:10:29;;;;;;;0.80;0.80;;;28.20;87.00;;;;;;4978609;28;20240;-80
2022/07/03 10:12:58;;;;;;;0.50;0.50;;;28.20;88.10;;;;;;4976946;28;20209;-82
2022/07/03 10:15:26;;;;;;;0.60;0.50;;;28.20;86.10;;;;;;4977013;28;20205;-79
2022/07/03 10:17:56;;;;;;;0.40;0.40;;;28.20;83.40;;;;;;4977297;28;20200;-80
2022/07/03 10:20:27;;;;;;;1.15;0.50;;;28.30;86.00;;;;;;4977198;28;20212;-80
2022/07/03 10:22:56;;;;;;;0.40;0.40;;;28.40;88.20;;;;;;4977210;28;20205;-80
2022/07/03 10:25:24;;;;;;;0.60;0.60;;;28.40;88.40;;;;;;4977006;28;20225;-80
2022/07/03 10:27:51;;;;;;;0.73;0.50;;;28.40;88.60;;;;;;4976825;28;20649;-79
2022/07/03 10:30:21;;;;;;;0.50;0.50;;;28.50;84.20;;;;;;4977075;28;20216;-80
2022/07/03 10:32:48;;;;;;;0.50;0.50;;;28.60;84.30;;;;;;4976999;28;20205;-80
2022/07/03 10:35:19;;;;;;;0.40;0.40;;;28.50;83.50;;;;;;4976996;28;20194;-80
2022/07/03 10:37:58;;;;;;;0.50;0.50;;;28.60;79.90;;;;;;4976888;28;20232;-80
2022/07/03 10:46:15;;;;;;;0.60;0.57;;;28.60;80.90;;;;;;4976692;28;20224;-80
2022/07/03 10:49:00;;;;;;;0.50;0.45;;;28.70;81.60;;;;;;4976457;28;20642;-79
2022/07/03 10:51:28;;;;;;;0.40;0.40;;;28.70;81.80;;;;;;4976709;28;20194;-79
2022/07/03 10:54:14;;;;;;;0.40;0.40;;;28.60;81.10;;;;;;4976301;28;20693;-79
2022/07/03 10:57:10;;;;;;;0.50;0.50;;;28.70;79.50;;;;;;4976460;28;20230;-79
2022/07/03 11:00:00;;;;;;;0.43;0.43;;;28.80;76.30;;;;;;4976573;28;20191;-79
2022/07/03 11:02:32;;;;;;;0.50;0.50;;;28.90;78.60;;;;;;4968690;28;20679;-79
2022/07/03 11:05:09;;;;;;;0.50;0.50;;;29.10;77.00;;;;;;4976374;28;20213;-79
2022/07/03 11:07:40;;;;;;;0.50;0.50;;;29.50;76.30;;;;;;4976068;28;20242;-79
2022/07/03 11:10:31;;;;;;;0.50;0.50;;;29.80;76.00;;;;;;4976027;28;20237;-79
2022/07/03 11:12:58;;;;;;;0.60;0.60;;;30.10;74.30;;;;;;4976344;28;20194;-79
2022/07/03 11:15:29;;;;;;;0.43;0.43;;;30.30;75.10;;;;;;4975888;28;20567;-79
2022/07/03 11:18:34;;;;;;;0.55;0.40;;;30.20;75.40;;;;;;4976252;28;20190;-79
2022/07/03 11:21:30;;;;;;;0.40;0.40;;;30.00;76.20;;;;;;4916396;29;20650;-77
2022/07/03 11:24:28;;;;;;;0.40;0.40;;;29.80;73.40;;;;;;4975417;28;20708;-76
2022/07/03 11:27:15;;;;;;;0.50;0.50;;;29.60;73.50;;;;;;4975662;28;20240;-76
2022/07/03 11:29:42;;;;;;;0.40;0.40;;;29.50;75.60;;;;;;4975961;28;20238;-76
2022/07/03 11:32:49;;;;;;;0.47;0.47;;;29.40;75.80;;;;;;4975867;28;20263;-76
2022/07/03 11:35:47;;;;;;;0.50;0.43;;;29.10;73.90;;;;;;4975862;28;20317;-76
2022/07/03 11:38:15;;;;;;;0.50;0.50;;;29.00;76.30;;;;;;4975769;28;20219;-76
2022/07/03 11:40:44;;;;;;;0.40;0.40;;;28.80;77.50;;;;;;4975713;28;20581;-76
2022/07/03 11:43:12;;;;;;;0.45;0.45;;;28.70;77.90;;;;;;4975707;28;20278;-76
2022/07/03 11:45:39;;;;;;;0.40;0.32;;;28.50;73.60;;;;;;4975190;28;20218;-76
2022/07/03 11:48:08;;;;;;;0.40;0.40;;;28.50;76.10;;;;;;4976312;28;20202;-76
2022/07/03 11:50:39;;;;;;;0.43;0.43;;;28.50;72.60;;;;;;4975551;28;20571;-76
2022/07/03 11:53:25;;;;;;;0.57;0.50;;;28.40;75.60;;;;;;4975560;28;20210;-77
2022/07/03 11:55:54;;;;;;;0.40;0.40;;;28.40;72.80;;;;;;4975448;28;20240;-77
2022/07/03 11:58:22;;;;;;;0.70;0.50;;;28.40;73.40;;;;;;4975110;28;20711;-76
2022/07/03 12:00:50;;;;;;;0.40;0.40;;;28.40;70.50;;;;;;4975905;28;20669;-76
2022/07/03 12:03:22;;;;;;;0.65;0.50;;;28.30;74.00;;;;;;4975383;28;20209;-76
2022/07/03 12:05:58;;;;;;;0.40;0.40;;;28.20;74.70;;;;;;4975219;28;20237;-76
2022/07/03 12:08:29;;;;;;;0.50;0.50;;;28.20;77.30;;;;;;4975020;28;20189;-77
2022/07/03 12:11:01;;;;;;;0.55;0.50;;;28.20;74.70;;;;;;4975113;28;20204;-77
2022/07/03 12:13:30;;;;;;;0.70;0.50;;;28.20;72.20;;;;;;4975336;28;20213;-77
2022/07/03 12:16:03;;;;;;;0.47;0.47;;;28.20;73.00;;;;;;4975139;28;20217;-76
2022/07/03 12:18:48;;;;;;;0.65;0.65;;;28.20;73.20;;;;;;4975144;28;20189;-76
2022/07/03 12:21:16;;;;;;;0.52;0.50;;;28.20;73.40;;;;;;4975576;28;20219;-76
2022/07/03 12:23:46;;;;;;;0.50;0.50;;;28.10;73.60;;;;;;4975302;28;20205;-76
2022/07/03 12:26:14;;;;;;;0.88;0.40;;;28.10;70.30;;;;;;4974587;28;20728;-76
2022/07/03 12:28:41;;;;;;;1.67;0.45;;;28.10;72.00;;;;;;4975050;28;20250;-76
2022/07/03 12:31:08;;;;;;;0.40;0.40;;;28.00;71.80;;;;;;4974681;28;20197;-76
2022/07/03 12:33:36;;;;;;;0.50;0.50;;;27.90;73.50;;;;;;4974414;28;20209;-76
2022/07/03 12:36:04;;;;;;;0.47;0.47;;;27.90;73.50;;;;;;4974540;28;20274;-76
2022/07/03 12:38:31;;;;;;;0.50;0.50;;;27.80;73.10;;;;;;4974805;28;20243;-76
2022/07/03 12:41:05;;;;;;;0.70;0.70;;;27.80;70.90;;;;;;4974490;28;20208;-76
2022/07/03 12:43:38;;;;;;;0.80;0.50;;;27.80;72.10;;;;;;4975553;28;20189;-76
2022/07/03 12:46:16;;;;;;;0.60;0.50;;;27.80;73.40;;;;;;4974613;28;20244;-77
2022/07/03 12:48:46;;;;;;;0.40;0.30;;;27.70;72.50;;;;;;4974864;28;20209;-76
2022/07/03 12:51:12;;;;;;;0.40;0.40;;;27.70;73.50;;;;;;4974650;28;20248;-77
2022/07/03 12:53:39;;;;;;;0.40;0.40;;;27.60;73.50;;;;;;4974644;28;20212;-76
2022/07/03 12:56:09;;;;;;;0.60;0.60;;;27.60;74.00;;;;;;4974556;28;20225;-76
2022/07/03 13:01:36;;;;;;;0.52;0.52;;;27.60;71.00;;;;;;4933905;29;20209;-77
2022/07/03 13:04:03;;;;;;;0.50;0.50;;;27.50;72.10;;;;;;4965304;28;20213;-77
2022/07/03 13:06:30;;;;;;;0.50;0.50;;;27.40;74.00;;;;;;4974428;28;20237;-77
2022/07/03 13:08:59;;;;;;;0.50;0.50;;;27.40;75.50;;;;;;4974263;28;20321;-77
2022/07/03 13:11:29;;;;;;;0.40;0.40;;;27.40;73.90;;;;;;4974172;28;20212;-77
2022/07/03 13:14:07;;;;;;;0.50;0.50;;;27.40;74.30;;;;;;4974753;28;20277;-77
2022/07/03 13:16:43;;;;;;;0.40;0.30;;;27.50;71.90;;;;;;4974393;28;20309;-77